Time;durP1;ratioP1;P1;durP2;ratioP2;P2;SDS_P1;SDS_P2;PMS_P1;PMS_P2;Temp;Humidity;BMP_temperature;BMP_pressure;BME280_temperature;BME280_humidity;BME280_pressure;Samples;Min_cycle;Max_cycle;Signal;HPM_P1;HPM_P2
2022/01/15 00:00:29;;;;;;;27.43;21.23;;;2.40;99.90;;;;;;5074956;28;20475;-49
2022/01/15 00:02:57;;;;;;;30.27;20.30;;;2.40;99.90;;;;;;5074709;28;20480;-49
2022/01/15 00:05:24;;;;;;;28.33;21.60;;;2.30;99.90;;;;;;5074247;28;20961;-49
2022/01/15 00:07:51;;;;;;;22.53;20.20;;;2.20;99.90;;;;;;5074446;28;20490;-49
2022/01/15 00:10:21;;;;;;;34.57;19.77;;;2.30;99.90;;;;;;5073269;28;20463;-49
2022/01/15 00:12:48;;;;;;;26.80;20.00;;;2.10;99.90;;;;;;5074544;28;20814;-49
2022/01/15 00:15:22;;;;;;;37.10;22.67;;;2.10;99.90;;;;;;5074443;28;20812;-50
2022/01/15 00:17:55;;;;;;;35.63;20.90;;;2.10;99.90;;;;;;5074647;28;20821;-49
2022/01/15 00:20:23;;;;;;;26.53;20.17;;;2.20;99.90;;;;;;5074484;28;20476;-49
2022/01/15 00:22:52;;;;;;;26.33;19.87;;;2.10;99.90;;;;;;5074004;28;20986;-49
2022/01/15 00:25:20;;;;;;;28.07;21.50;;;2.10;99.90;;;;;;5074218;28;20454;-49
2022/01/15 00:27:48;;;;;;;28.77;21.70;;;2.00;99.90;;;;;;5074027;28;20477;-49
2022/01/15 00:30:17;;;;;;;31.60;21.57;;;1.90;99.90;;;;;;5073955;28;20906;-49
2022/01/15 00:32:44;;;;;;;24.90;20.07;;;1.90;99.90;;;;;;5073676;28;20458;-49
2022/01/15 00:35:14;;;;;;;25.97;20.90;;;2.00;99.90;;;;;;5073963;28;20543;-49
2022/01/15 00:37:42;;;;;;;22.67;18.67;;;2.00;99.90;;;;;;5073952;28;20444;-49
2022/01/15 00:40:12;;;;;;;25.23;19.97;;;2.00;99.90;;;;;;5073849;28;20456;-48
2022/01/15 00:42:40;;;;;;;28.67;19.83;;;2.00;99.90;;;;;;5073664;28;20919;-49
2022/01/15 00:45:13;;;;;;;28.57;21.17;;;2.10;99.90;;;;;;5073979;28;20463;-49
2022/01/15 00:47:42;;;;;;;28.73;20.27;;;2.20;99.90;;;;;;5073339;28;20483;-49
2022/01/15 00:50:10;;;;;;;22.53;19.10;;;2.20;99.90;;;;;;5073640;28;20444;-49
2022/01/15 00:52:37;;;;;;;24.47;19.53;;;2.30;99.90;;;;;;5073845;28;20444;-50
2022/01/15 00:55:05;;;;;;;24.50;19.33;;;2.20;99.90;;;;;;5073639;28;20448;-49
2022/01/15 00:57:32;;;;;;;33.30;20.17;;;2.00;99.90;;;;;;5073544;28;20451;-49
2022/01/15 00:59:59;;;;;;;26.63;20.80;;;1.80;99.90;;;;;;5073628;28;20444;-49
2022/01/15 01:02:26;;;;;;;26.43;19.03;;;1.90;99.90;;;;;;5073362;28;20473;-49
2022/01/15 01:04:55;;;;;;;26.30;19.60;;;1.90;99.90;;;;;;5073273;28;20455;-49
2022/01/15 01:07:22;;;;;;;31.53;22.03;;;1.90;99.90;;;;;;5073579;28;20445;-49
2022/01/15 01:10:04;;;;;;;25.27;20.80;;;1.90;99.90;;;;;;5073495;28;20480;-49
2022/01/15 01:12:55;;;;;;;27.63;20.80;;;1.80;99.90;;;;;;5073053;28;20483;-49
2022/01/15 01:21:08;;;;;;;29.50;20.23;;;1.80;99.90;;;;;;5063267;28;20459;-49
2022/01/15 01:23:34;;;;;;;24.57;18.90;;;1.80;99.90;;;;;;5073225;28;20429;-49
2022/01/15 01:26:08;;;;;;;28.97;22.23;;;1.80;99.90;;;;;;5072827;28;20444;-49
2022/01/15 01:28:40;;;;;;;27.67;19.93;;;1.80;99.90;;;;;;5073069;28;20468;-49
2022/01/15 01:31:14;;;;;;;27.90;21.10;;;1.80;99.90;;;;;;5072841;28;20469;-49
2022/01/15 01:33:47;;;;;;;26.50;20.97;;;1.90;99.90;;;;;;5072918;28;20520;-49
2022/01/15 01:36:22;;;;;;;32.20;19.17;;;1.70;99.90;;;;;;5073022;28;20439;-50
2022/01/15 01:38:53;;;;;;;29.70;19.03;;;1.60;99.90;;;;;;5072892;28;20787;-48
2022/01/15 01:41:22;;;;;;;21.40;18.90;;;1.50;99.90;;;;;;5072525;28;20496;-48
2022/01/15 01:43:54;;;;;;;25.80;18.67;;;1.40;99.90;;;;;;5072708;28;20448;-48
2022/01/15 01:46:37;;;;;;;26.77;19.80;;;1.50;99.90;;;;;;5072568;28;20432;-48
2022/01/15 01:49:04;;;;;;;26.00;19.10;;;1.70;99.90;;;;;;5072848;28;20491;-48
2022/01/15 01:51:35;;;;;;;26.83;20.40;;;1.60;99.90;;;;;;5072486;28;20526;-48
2022/01/15 01:54:05;;;;;;;30.70;21.10;;;1.70;99.90;;;;;;5072950;28;20436;-48
2022/01/15 01:56:33;;;;;;;26.30;19.80;;;1.60;99.90;;;;;;5072446;28;20455;-48
2022/01/15 01:59:00;;;;;;;24.47;18.13;;;1.60;99.90;;;;;;5072429;28;20505;-48
2022/01/15 02:01:27;;;;;;;30.23;18.80;;;1.40;99.90;;;;;;5072292;28;20828;-48
2022/01/15 02:03:55;;;;;;;25.97;18.77;;;1.30;99.90;;;;;;5072695;28;20471;-48
2022/01/15 02:06:22;;;;;;;27.63;18.93;;;1.40;99.90;;;;;;5072331;28;20452;-48
2022/01/15 02:08:51;;;;;;;27.87;21.87;;;1.40;99.90;;;;;;5072336;28;20479;-49
2022/01/15 02:11:18;;;;;;;25.67;19.30;;;1.50;99.90;;;;;;5072349;28;20476;-48
2022/01/15 02:13:47;;;;;;;26.97;19.30;;;1.60;99.90;;;;;;5072278;28;20920;-49
2022/01/15 02:16:16;;;;;;;25.53;17.83;;;1.80;99.90;;;;;;5072151;28;21014;-48
2022/01/15 02:18:43;;;;;;;21.70;17.90;;;1.80;99.90;;;;;;5072476;28;20476;-49
2022/01/15 02:23:57;;;;;;;27.43;18.47;;;1.50;99.90;;;;;;5072353;28;20804;-49
2022/01/15 02:26:26;;;;;;;24.53;19.37;;;1.40;99.90;;;;;;5072415;28;20444;-49
2022/01/15 02:28:56;;;;;;;23.40;17.80;;;1.40;99.90;;;;;;5072203;28;20476;-49
2022/01/15 02:31:24;;;;;;;23.27;19.47;;;1.50;99.90;;;;;;5071993;28;20500;-49
2022/01/15 02:33:54;;;;;;;25.57;19.70;;;1.60;99.90;;;;;;5074418;28;20448;-50
2022/01/15 02:36:24;;;;;;;26.00;18.60;;;1.40;99.90;;;;;;5075809;28;20454;-49
2022/01/15 02:38:52;;;;;;;24.50;18.67;;;1.50;99.90;;;;;;5076192;28;20464;-49
2022/01/15 02:41:27;;;;;;;23.10;18.63;;;1.50;99.90;;;;;;5075784;28;20990;-49
2022/01/15 02:43:55;;;;;;;29.87;19.67;;;1.60;99.90;;;;;;5075753;28;20444;-49
2022/01/15 02:46:34;;;;;;;24.30;18.33;;;1.60;99.90;;;;;;5075916;28;20935;-49
2022/01/15 02:49:04;;;;;;;21.33;18.40;;;1.50;99.90;;;;;;5075837;28;20471;-50
2022/01/15 02:51:33;;;;;;;22.67;18.00;;;1.50;99.90;;;;;;5075587;28;20468;-50
2022/01/15 02:54:01;;;;;;;20.87;16.30;;;1.40;99.90;;;;;;5076038;28;20799;-49
2022/01/15 02:56:34;;;;;;;24.63;19.10;;;1.40;99.90;;;;;;5075701;28;20452;-49
2022/01/15 02:59:02;;;;;;;24.50;16.73;;;1.40;99.90;;;;;;5075759;28;20413;-50
2022/01/15 03:01:30;;;;;;;28.20;18.90;;;1.40;99.90;;;;;;5075320;28;20561;-49
2022/01/15 03:03:57;;;;;;;33.50;20.83;;;1.40;99.90;;;;;;5075396;28;20746;-49
2022/01/15 03:06:25;;;;;;;23.17;20.17;;;1.30;99.90;;;;;;5075421;28;20462;-50
2022/01/15 03:08:54;;;;;;;21.03;17.73;;;1.30;99.90;;;;;;5075235;28;20480;-49
2022/01/15 03:11:22;;;;;;;20.70;17.03;;;1.30;99.90;;;;;;5075136;28;20483;-49
2022/01/15 03:13:50;;;;;;;26.37;18.93;;;1.30;99.90;;;;;;5075718;28;20448;-49
2022/01/15 03:16:19;;;;;;;22.13;17.27;;;1.30;99.90;;;;;;5075470;28;20447;-49
2022/01/15 03:18:47;;;;;;;24.40;19.50;;;1.30;99.90;;;;;;5075326;28;20484;-49
2022/01/15 03:21:14;;;;;;;27.60;18.97;;;1.30;99.90;;;;;;5075390;28;20852;-49
2022/01/15 03:23:42;;;;;;;32.97;18.00;;;1.40;99.90;;;;;;5075206;28;20455;-49
2022/01/15 03:26:13;;;;;;;23.67;18.57;;;1.30;99.90;;;;;;5075110;28;20432;-50
2022/01/15 03:28:40;;;;;;;23.27;17.10;;;1.30;99.90;;;;;;5075288;28;20522;-49
2022/01/15 03:31:08;;;;;;;22.80;17.70;;;1.20;99.90;;;;;;5075277;28;20961;-49
2022/01/15 03:33:35;;;;;;;23.00;18.60;;;1.20;99.90;;;;;;5074784;28;20952;-49
2022/01/15 03:36:02;;;;;;;21.43;17.60;;;1.20;99.90;;;;;;5074859;28;20556;-49
2022/01/15 03:38:29;;;;;;;25.70;19.17;;;1.30;99.90;;;;;;5074993;28;20943;-49
2022/01/15 03:40:56;;;;;;;27.20;18.47;;;1.40;99.90;;;;;;5074855;28;20463;-49
2022/01/15 03:43:25;;;;;;;21.80;16.80;;;1.50;99.90;;;;;;5074724;28;20896;-49
2022/01/15 03:45:52;;;;;;;24.43;17.70;;;1.50;99.90;;;;;;5075039;28;20459;-49
2022/01/15 03:48:19;;;;;;;20.07;17.40;;;1.40;99.90;;;;;;5074885;28;20953;-49
2022/01/15 03:50:46;;;;;;;19.10;17.10;;;1.40;99.90;;;;;;5074826;28;20570;-49
2022/01/15 03:53:13;;;;;;;24.53;17.50;;;1.30;99.90;;;;;;5074941;28;20448;-49
2022/01/15 03:55:41;;;;;;;24.07;18.33;;;1.40;99.90;;;;;;5074517;28;20923;-49
2022/01/15 03:58:08;;;;;;;24.40;18.87;;;1.20;99.90;;;;;;5074307;28;20448;-49
2022/01/15 04:00:36;;;;;;;27.80;19.27;;;1.20;99.90;;;;;;5074394;28;20468;-49
2022/01/15 04:03:04;;;;;;;20.30;17.20;;;1.10;99.90;;;;;;5074413;28;20440;-49
2022/01/15 04:05:32;;;;;;;37.40;20.67;;;1.10;99.90;;;;;;5074550;28;20440;-49
2022/01/15 04:07:59;;;;;;;23.90;18.83;;;1.10;99.90;;;;;;5074315;28;20452;-49
2022/01/15 04:10:28;;;;;;;26.07;20.03;;;1.10;99.90;;;;;;5089673;28;22198;-49
2022/01/15 04:12:55;;;;;;;21.50;17.73;;;1.20;99.90;;;;;;5094284;28;20970;-49
2022/01/15 04:15:22;;;;;;;20.97;17.33;;;1.30;99.90;;;;;;5094622;28;20466;-49
2022/01/15 04:17:50;;;;;;;25.53;19.53;;;1.40;99.90;;;;;;5094692;28;20463;-49
2022/01/15 04:20:20;;;;;;;23.87;18.70;;;1.40;99.90;;;;;;5094036;28;20567;-49
2022/01/15 04:22:48;;;;;;;22.73;18.13;;;1.30;99.90;;;;;;5094082;28;20490;-49
2022/01/15 04:25:16;;;;;;;26.80;18.00;;;1.10;99.90;;;;;;5094521;28;20448;-49
2022/01/15 04:27:44;;;;;;;25.10;19.50;;;1.00;99.90;;;;;;5094026;28;20448;-49
2022/01/15 04:30:13;;;;;;;22.03;18.80;;;1.00;99.90;;;;;;5093898;28;21008;-50
2022/01/15 04:32:40;;;;;;;23.00;17.93;;;1.00;99.90;;;;;;5094089;28;20432;-49
2022/01/15 04:35:10;;;;;;;23.30;18.07;;;0.90;99.90;;;;;;5093945;28;20801;-49
2022/01/15 04:37:40;;;;;;;27.90;19.37;;;0.90;99.90;;;;;;5094222;28;20451;-49
2022/01/15 04:40:09;;;;;;;24.40;18.37;;;0.90;99.90;;;;;;5094204;28;20467;-49
2022/01/15 04:42:37;;;;;;;24.03;19.53;;;1.00;99.90;;;;;;5094265;28;20444;-48
2022/01/15 04:45:07;;;;;;;24.93;18.40;;;1.20;99.90;;;;;;5093758;28;20455;-49
2022/01/15 04:47:34;;;;;;;21.23;17.83;;;1.10;99.90;;;;;;5093841;28;20554;-49
2022/01/15 04:50:02;;;;;;;21.77;18.20;;;1.20;99.90;;;;;;5093983;28;20489;-48
2022/01/15 04:52:33;;;;;;;28.80;19.90;;;1.20;99.90;;;;;;5093853;28;20467;-49
2022/01/15 04:55:01;;;;;;;21.40;16.60;;;1.20;99.90;;;;;;5093950;28;20428;-49
2022/01/15 04:57:28;;;;;;;22.30;18.23;;;1.20;99.90;;;;;;5093535;28;20516;-49
2022/01/15 04:59:56;;;;;;;26.57;19.00;;;1.30;99.90;;;;;;5093880;28;20446;-49
2022/01/15 05:02:23;;;;;;;22.07;17.97;;;1.20;99.90;;;;;;5093724;28;20550;-49
2022/01/15 05:04:50;;;;;;;26.40;18.87;;;1.20;99.90;;;;;;5093508;28;20561;-49
2022/01/15 05:07:17;;;;;;;19.80;16.87;;;1.10;99.90;;;;;;5093485;28;20955;-49
2022/01/15 05:09:45;;;;;;;23.80;17.50;;;1.10;99.90;;;;;;5093157;28;20992;-49
2022/01/15 05:12:25;;;;;;;22.50;17.83;;;1.10;99.90;;;;;;5093483;28;20547;-49
2022/01/15 05:14:52;;;;;;;27.33;18.27;;;1.10;99.90;;;;;;5093357;28;20505;-49
2022/01/15 05:17:19;;;;;;;22.33;16.00;;;1.10;99.90;;;;;;5093326;28;20752;-49
2022/01/15 05:19:46;;;;;;;24.63;18.33;;;1.10;99.90;;;;;;5092831;28;20485;-49
2022/01/15 05:22:14;;;;;;;19.77;17.77;;;1.10;99.90;;;;;;5093386;28;20819;-49
2022/01/15 05:24:41;;;;;;;26.30;17.20;;;1.20;99.90;;;;;;5093144;28;20443;-49
2022/01/15 05:27:09;;;;;;;24.63;16.57;;;1.20;99.90;;;;;;5093419;28;20444;-48
2022/01/15 05:29:36;;;;;;;28.87;19.50;;;1.20;99.90;;;;;;5093281;28;20481;-49
2022/01/15 05:32:04;;;;;;;23.70;17.40;;;1.10;99.90;;;;;;5093054;28;20468;-49
2022/01/15 05:34:31;;;;;;;21.37;17.30;;;1.20;99.90;;;;;;5093174;28;20451;-49
2022/01/15 05:36:58;;;;;;;26.63;17.53;;;1.10;99.90;;;;;;5092832;28;20948;-49
2022/01/15 05:39:25;;;;;;;20.43;17.00;;;1.10;99.90;;;;;;5093305;28;20445;-49
2022/01/15 05:41:52;;;;;;;22.50;17.33;;;1.00;99.90;;;;;;5092998;28;20467;-49
2022/01/15 05:44:21;;;;;;;26.97;16.90;;;1.00;99.90;;;;;;5092729;28;20973;-49
2022/01/15 05:46:48;;;;;;;23.57;19.10;;;1.00;99.90;;;;;;5093241;28;20450;-49
2022/01/15 05:49:15;;;;;;;27.73;18.60;;;1.00;99.90;;;;;;5092696;28;20810;-49
2022/01/15 05:51:43;;;;;;;25.43;18.10;;;1.00;99.90;;;;;;5092864;28;20558;-49
2022/01/15 05:54:11;;;;;;;23.00;18.37;;;0.90;99.90;;;;;;5093055;28;20450;-49
2022/01/15 05:56:39;;;;;;;23.47;17.70;;;0.90;99.90;;;;;;5093021;28;20538;-49
2022/01/15 05:59:07;;;;;;;25.13;17.43;;;0.90;99.90;;;;;;5092995;28;20447;-49
2022/01/15 06:01:36;;;;;;;25.60;17.70;;;0.70;99.90;;;;;;5093130;28;20467;-49
2022/01/15 06:04:08;;;;;;;21.80;17.43;;;0.70;99.90;;;;;;5092445;28;20483;-49
2022/01/15 06:06:35;;;;;;;24.27;17.50;;;0.80;99.90;;;;;;5092564;28;20491;-49
2022/01/15 06:09:03;;;;;;;27.33;18.47;;;0.90;99.90;;;;;;5095444;28;20860;-49
2022/01/15 06:11:30;;;;;;;21.07;18.73;;;0.90;99.90;;;;;;5096800;28;20463;-49
2022/01/15 06:13:58;;;;;;;26.03;17.73;;;0.90;99.90;;;;;;5096672;28;20484;-49
2022/01/15 06:16:25;;;;;;;25.60;17.97;;;0.80;99.90;;;;;;5096617;28;20454;-49
2022/01/15 06:18:54;;;;;;;23.07;16.70;;;0.80;99.90;;;;;;5096996;28;20481;-49
2022/01/15 06:21:21;;;;;;;21.33;16.87;;;0.80;99.90;;;;;;5096964;28;20463;-49
2022/01/15 06:23:48;;;;;;;21.77;17.27;;;0.90;99.90;;;;;;5096475;28;20534;-49
2022/01/15 06:26:16;;;;;;;24.33;19.23;;;0.90;99.90;;;;;;5096529;28;20485;-49
2022/01/15 06:28:43;;;;;;;23.50;17.70;;;0.90;99.90;;;;;;5096429;28;20451;-49
2022/01/15 06:31:10;;;;;;;25.37;17.00;;;0.60;99.90;;;;;;5096207;28;20505;-49
2022/01/15 06:33:37;;;;;;;20.30;16.10;;;0.40;99.90;;;;;;5096412;28;20543;-49
2022/01/15 06:36:06;;;;;;;23.40;18.43;;;0.40;99.90;;;;;;5096295;28;20505;-49
2022/01/15 06:38:33;;;;;;;21.40;17.40;;;0.40;99.90;;;;;;5096246;28;20440;-49
2022/01/15 06:41:00;;;;;;;24.23;17.50;;;0.40;99.90;;;;;;5096524;28;20494;-49
2022/01/15 06:43:27;;;;;;;24.17;18.60;;;0.30;99.90;;;;;;5096235;28;20443;-49
2022/01/15 06:45:55;;;;;;;24.77;17.53;;;0.30;99.90;;;;;;5096455;28;20443;-49
2022/01/15 06:48:22;;;;;;;23.20;16.67;;;0.60;99.90;;;;;;5096649;28;20482;-49
2022/01/15 06:50:49;;;;;;;21.13;17.80;;;0.70;99.90;;;;;;5096149;28;20487;-49
2022/01/15 06:53:17;;;;;;;26.87;17.93;;;0.80;99.90;;;;;;5095900;28;20534;-49
2022/01/15 06:55:49;;;;;;;24.63;18.37;;;0.80;99.90;;;;;;5095977;28;20448;-49
2022/01/15 06:58:16;;;;;;;23.93;18.20;;;0.70;99.90;;;;;;5096038;28;20467;-49
2022/01/15 07:00:43;;;;;;;21.47;17.63;;;0.50;99.90;;;;;;5095765;28;20470;-49
2022/01/15 07:03:10;;;;;;;20.63;17.13;;;0.30;99.90;;;;;;5095576;28;20952;-49
2022/01/15 07:05:38;;;;;;;22.33;16.70;;;0.40;99.90;;;;;;5095908;28;20951;-48
2022/01/15 07:08:05;;;;;;;24.20;19.30;;;0.40;99.90;;;;;;5095857;28;20449;-49
2022/01/15 07:10:34;;;;;;;30.30;18.00;;;0.50;99.90;;;;;;5095618;28;20485;-49
2022/01/15 07:13:01;;;;;;;21.63;17.63;;;0.60;99.90;;;;;;5095819;28;20455;-49
2022/01/15 07:15:28;;;;;;;21.80;18.00;;;0.70;99.90;;;;;;5095904;28;20447;-48
2022/01/15 07:17:59;;;;;;;22.13;16.60;;;0.80;99.90;;;;;;5095832;28;20458;-48
2022/01/15 07:20:26;;;;;;;21.77;17.10;;;0.60;99.90;;;;;;5094852;28;20467;-49
2022/01/15 07:22:54;;;;;;;24.30;15.90;;;0.70;99.90;;;;;;5095684;28;20447;-49
2022/01/15 07:25:21;;;;;;;23.60;17.20;;;0.70;99.90;;;;;;5095682;28;20771;-49
2022/01/15 07:27:50;;;;;;;21.70;16.00;;;0.70;99.90;;;;;;5095784;28;20542;-49
2022/01/15 07:30:17;;;;;;;25.87;16.90;;;0.70;99.90;;;;;;5095228;28;20518;-49
2022/01/15 07:32:45;;;;;;;21.70;16.73;;;0.50;99.90;;;;;;5095414;28;20534;-48
2022/01/15 07:35:12;;;;;;;19.80;16.03;;;0.60;99.90;;;;;;5095231;28;20952;-48
2022/01/15 07:37:39;;;;;;;20.07;17.17;;;0.70;99.90;;;;;;5095580;28;20443;-49
2022/01/15 07:40:08;;;;;;;20.90;16.83;;;0.60;99.90;;;;;;5095054;28;20453;-49
2022/01/15 07:42:37;;;;;;;20.33;15.37;;;0.60;99.90;;;;;;5095144;28;20518;-49
2022/01/15 07:45:07;;;;;;;19.00;14.93;;;0.60;99.90;;;;;;5095112;28;20993;-49
2022/01/15 07:47:34;;;;;;;23.50;15.77;;;0.50;99.90;;;;;;5095063;28;20457;-48
2022/01/15 07:50:02;;;;;;;26.30;17.87;;;0.30;99.90;;;;;;5094771;28;20993;-49
2022/01/15 07:52:29;;;;;;;25.87;17.50;;;0.30;99.90;;;;;;5095210;28;20470;-49
2022/01/15 07:54:58;;;;;;;22.80;16.07;;;0.30;99.90;;;;;;5095036;28;20451;-49
2022/01/15 07:57:25;;;;;;;24.37;18.50;;;0.40;99.90;;;;;;5095044;28;20448;-49
2022/01/15 07:59:52;;;;;;;18.53;15.57;;;0.30;99.90;;;;;;5095113;28;20845;-48
2022/01/15 08:02:21;;;;;;;18.80;16.80;;;0.30;99.90;;;;;;5094843;28;20546;-49
2022/01/15 08:04:48;;;;;;;23.80;17.30;;;0.30;99.90;;;;;;5094469;28;20530;-49
2022/01/15 08:07:16;;;;;;;25.37;17.20;;;0.40;99.90;;;;;;5094977;28;20439;-49
2022/01/15 08:09:43;;;;;;;21.10;17.03;;;0.50;99.90;;;;;;5094722;28;20539;-50
2022/01/15 08:12:36;;;;;;;21.03;16.00;;;0.60;99.90;;;;;;5094612;28;20578;-49
2022/01/15 08:15:33;;;;;;;21.57;19.30;;;0.70;99.90;;;;;;5093993;28;20514;-49
2022/01/15 08:18:02;;;;;;;17.53;15.60;;;0.80;99.90;;;;;;5093062;28;20463;-49
2022/01/15 08:20:29;;;;;;;28.60;17.90;;;0.70;99.90;;;;;;5093994;28;20505;-49
2022/01/15 08:22:56;;;;;;;18.67;16.77;;;0.80;99.90;;;;;;5094171;28;20440;-49
2022/01/15 08:25:25;;;;;;;19.37;17.30;;;0.80;99.90;;;;;;5094461;28;20457;-49
2022/01/15 08:27:53;;;;;;;19.40;17.17;;;0.80;99.90;;;;;;5093917;28;20454;-48
2022/01/15 08:30:21;;;;;;;19.57;16.07;;;0.70;99.90;;;;;;5093436;28;20471;-49
2022/01/15 08:32:48;;;;;;;25.53;16.30;;;0.80;99.90;;;;;;5094020;28;20447;-48
2022/01/15 08:35:17;;;;;;;23.33;17.57;;;0.70;99.90;;;;;;5093630;28;20766;-48
2022/01/15 08:37:44;;;;;;;21.37;17.67;;;0.80;99.90;;;;;;5094002;28;20450;-47
2022/01/15 08:40:14;;;;;;;19.10;15.97;;;1.10;99.90;;;;;;5093993;28;20450;-48
2022/01/15 08:42:42;;;;;;;22.90;18.73;;;1.20;99.90;;;;;;5093758;28;20534;-48
2022/01/15 08:45:11;;;;;;;22.40;18.00;;;1.30;99.90;;;;;;5093628;28;20926;-48
2022/01/15 08:47:38;;;;;;;22.93;17.70;;;1.40;99.90;;;;;;5090185;28;20494;-49
2022/01/15 08:50:07;;;;;;;20.70;16.93;;;1.30;99.90;;;;;;5093530;28;21008;-46
2022/01/15 08:52:37;;;;;;;23.43;18.87;;;1.30;99.90;;;;;;5082235;28;20470;-48
2022/01/15 08:55:05;;;;;;;24.20;18.33;;;1.30;99.90;;;;;;5081468;28;20444;-46
2022/01/15 08:57:32;;;;;;;22.50;17.53;;;1.30;99.90;;;;;;5087245;28;20447;-47
2022/01/15 09:00:00;;;;;;;24.27;18.27;;;1.50;99.90;;;;;;5084572;28;20513;-48
2022/01/15 09:02:27;;;;;;;24.37;17.67;;;1.60;99.90;;;;;;5083661;28;20593;-49
2022/01/15 09:04:55;;;;;;;23.03;17.40;;;1.80;99.90;;;;;;5085034;28;20439;-51
2022/01/15 09:07:22;;;;;;;23.30;16.13;;;1.90;99.90;;;;;;5085828;28;20454;-51
2022/01/15 09:09:50;;;;;;;21.37;16.97;;;1.90;99.90;;;;;;5085784;28;20447;-46
2022/01/15 09:12:19;;;;;;;27.00;17.63;;;1.90;99.90;;;;;;5075320;28;20927;-46
2022/01/15 09:14:46;;;;;;;24.30;17.40;;;1.90;99.90;;;;;;5075741;28;20501;-45
2022/01/15 09:17:14;;;;;;;18.97;16.93;;;1.80;99.90;;;;;;5075000;28;20455;-49
2022/01/15 09:19:41;;;;;;;23.83;19.57;;;1.70;99.90;;;;;;5076629;28;20501;-49
2022/01/15 09:22:11;;;;;;;20.30;17.50;;;1.90;99.90;;;;;;5072201;28;20490;-48
2022/01/15 09:24:39;;;;;;;22.60;17.93;;;2.00;99.90;;;;;;5075015;28;20638;-46
2022/01/15 09:32:33;;;;;;;22.70;18.43;;;2.20;99.90;;;;;;5075697;28;21017;-49
2022/01/15 09:35:01;;;;;;;23.47;19.40;;;2.20;99.90;;;;;;5074651;28;20447;-46
2022/01/15 09:37:28;;;;;;;23.63;17.93;;;2.40;99.90;;;;;;5075501;28;20553;-46
2022/01/15 09:39:57;;;;;;;23.20;17.83;;;2.40;99.90;;;;;;5079138;28;20454;-47
2022/01/15 09:42:26;;;;;;;22.30;17.63;;;2.50;99.90;;;;;;5079146;27;20480;-47
2022/01/15 09:44:54;;;;;;;25.97;19.10;;;2.50;99.90;;;;;;5084370;28;20459;-47
2022/01/15 09:47:22;;;;;;;20.43;18.10;;;2.40;99.90;;;;;;5083488;28;20454;-45
2022/01/15 09:49:50;;;;;;;21.23;19.20;;;2.40;99.90;;;;;;5091330;28;20961;-47
2022/01/15 09:52:17;;;;;;;21.30;17.90;;;2.40;99.90;;;;;;5094320;28;20987;-48
2022/01/15 09:54:45;;;;;;;22.93;20.50;;;2.50;99.90;;;;;;5094796;28;20485;-57
2022/01/15 09:57:12;;;;;;;23.67;19.43;;;2.60;99.90;;;;;;5096128;28;20457;-54
2022/01/15 09:59:41;;;;;;;24.03;18.53;;;2.60;99.90;;;;;;5094342;28;21103;-44
2022/01/15 10:02:08;;;;;;;23.37;18.37;;;2.60;99.90;;;;;;5095435;28;21042;-47
2022/01/15 10:04:35;;;;;;;20.13;18.00;;;2.60;99.90;;;;;;5094768;28;20448;-47
2022/01/15 10:07:14;;;;;;;22.97;18.10;;;2.50;99.90;;;;;;5091626;28;21253;-46
2022/01/15 10:09:43;;;;;;;22.37;17.27;;;2.50;99.90;;;;;;5094169;28;20459;-47
2022/01/15 10:12:11;;;;;;;21.33;18.20;;;2.50;99.90;;;;;;5094338;28;20551;-46
2022/01/15 10:14:42;;;;;;;24.60;19.93;;;2.60;99.90;;;;;;5095421;28;20534;-46
2022/01/15 10:17:25;;;;;;;20.50;16.87;;;2.60;99.90;;;;;;5096085;28;20478;-47
2022/01/15 10:19:53;;;;;;;24.30;19.87;;;2.70;99.90;;;;;;5095629;28;20479;-47
2022/01/15 10:22:22;;;;;;;23.37;20.70;;;2.70;99.90;;;;;;5085675;28;20498;-48
2022/01/15 10:24:56;;;;;;;19.50;17.47;;;2.90;99.90;;;;;;5081836;28;20442;-45
2022/01/15 10:27:30;;;;;;;29.77;20.20;;;2.90;99.90;;;;;;5084183;28;20447;-48
2022/01/15 10:30:02;;;;;;;21.57;19.33;;;3.00;99.90;;;;;;5083436;28;20443;-48
2022/01/15 10:32:30;;;;;;;30.43;19.40;;;3.10;99.90;;;;;;5083043;28;20498;-48
2022/01/15 10:34:58;;;;;;;23.57;18.00;;;3.30;99.90;;;;;;5081142;28;21035;-47
2022/01/15 10:37:33;;;;;;;23.40;19.47;;;3.30;99.90;;;;;;5081501;28;20523;-48
2022/01/15 10:40:04;;;;;;;25.27;20.07;;;3.20;99.90;;;;;;5080660;28;20524;-47
2022/01/15 10:42:32;;;;;;;22.00;19.63;;;3.00;99.90;;;;;;5083755;28;20459;-47
2022/01/15 10:45:07;;;;;;;21.90;19.60;;;3.20;99.90;;;;;;5081004;28;20487;-48
2022/01/15 10:47:41;;;;;;;22.23;18.67;;;3.50;99.90;;;;;;5083172;28;21047;-50
2022/01/15 10:50:09;;;;;;;21.40;19.30;;;4.20;99.90;;;;;;5084330;28;20455;-52
2022/01/15 10:52:36;;;;;;;24.17;19.40;;;5.30;99.90;;;;;;5083113;28;20481;-45
2022/01/15 10:55:08;;;;;;;20.90;18.73;;;;;;;;;;5086553;28;20450;-47
2022/01/15 10:57:37;;;;;;;22.37;18.20;;;6.80;99.90;;;;;;5093785;28;20451;-48
2022/01/15 11:00:12;;;;;;;23.50;18.00;;;7.80;99.90;;;;;;5097173;28;20939;-46
2022/01/15 11:02:40;;;;;;;19.77;17.77;;;9.30;99.90;;;;;;5099323;28;20442;-46
2022/01/15 11:05:22;;;;;;;25.83;19.07;;;9.50;98.30;;;;;;5097792;28;20457;-46
2022/01/15 11:07:49;;;;;;;21.30;19.03;;;9.70;98.90;;;;;;5097888;28;20446;-48
2022/01/15 11:10:16;;;;;;;20.80;18.77;;;10.40;96.50;;;;;;5097835;28;20497;-55
2022/01/15 11:12:44;;;;;;;24.30;19.60;;;11.10;95.10;;;;;;5096068;28;20479;-47
2022/01/15 11:15:12;;;;;;;20.63;18.50;;;11.00;94.20;;;;;;5099505;28;20450;-47
2022/01/15 11:17:41;;;;;;;21.87;19.57;;;11.00;94.20;;;;;;5088144;28;20638;-47
2022/01/15 11:20:09;;;;;;;19.83;17.73;;;11.10;93.20;;;;;;5083755;28;20478;-47
2022/01/15 11:22:36;;;;;;;21.43;17.23;;;11.20;93.70;;;;;;5089654;28;20516;-47
2022/01/15 11:25:05;;;;;;;26.17;18.83;;;11.10;92.60;;;;;;5099102;28;20459;-47
2022/01/15 11:27:33;;;;;;;21.07;18.30;;;11.70;93.00;;;;;;5098484;28;20541;-47
2022/01/15 11:30:00;;;;;;;23.27;18.03;;;11.90;92.10;;;;;;5094267;28;20460;-49
2022/01/15 11:32:29;;;;;;;19.10;17.10;;;;;;;;;;5091728;28;20548;-50
2022/01/15 11:35:05;;;;;;;21.03;17.80;;;12.20;91.50;;;;;;5097910;28;20430;-50
2022/01/15 11:37:42;;;;;;;27.13;17.90;;;12.40;90.60;;;;;;5094312;28;20445;-48
2022/01/15 11:40:39;;;;;;;20.60;17.60;;;12.40;90.90;;;;;;5094488;28;20443;-52
2022/01/15 11:43:47;;;;;;;18.30;16.57;;;11.80;91.70;;;;;;5094100;28;20443;-51
2022/01/15 11:46:26;;;;;;;19.67;16.93;;;11.70;90.80;;;;;;5080363;28;20467;-50
2022/01/15 11:49:36;;;;;;;19.23;16.00;;;11.60;91.80;;;;;;5085991;28;20465;-52
2022/01/15 11:52:46;;;;;;;18.10;16.17;;;12.30;91.60;;;;;;5083644;28;20518;-50
2022/01/15 11:55:22;;;;;;;23.83;18.50;;;11.90;91.10;;;;;;5084359;28;20938;-54
2022/01/15 11:57:55;;;;;;;17.50;15.80;;;11.30;91.60;;;;;;5088392;28;20455;-47
2022/01/15 12:00:42;;;;;;;19.90;17.27;;;11.40;91.60;;;;;;5090148;28;20971;-49
2022/01/15 12:03:13;;;;;;;18.23;15.40;;;11.20;91.40;;;;;;5090721;28;21143;-47
2022/01/15 12:05:47;;;;;;;20.27;17.03;;;11.30;91.90;;;;;;5089799;28;20451;-48
2022/01/15 12:08:30;;;;;;;19.63;16.73;;;10.70;91.80;;;;;;5091718;28;20954;-47
2022/01/15 12:10:59;;;;;;;21.50;16.47;;;10.30;92.20;;;;;;5086969;28;20312;-50
2022/01/15 12:13:27;;;;;;;19.97;17.80;;;9.70;93.60;;;;;;5089925;28;20438;-53
2022/01/15 12:16:14;;;;;;;19.30;17.40;;;8.90;94.10;;;;;;5089662;28;20538;-49
2022/01/15 12:18:49;;;;;;;17.80;16.00;;;8.90;94.50;;;;;;5087654;28;20471;-49
2022/01/15 12:21:45;;;;;;;21.93;15.70;;;8.60;94.80;;;;;;5081017;28;20486;-48
2022/01/15 12:24:40;;;;;;;22.20;16.70;;;8.60;95.30;;;;;;5084906;28;20438;-49
2022/01/15 12:27:11;;;;;;;19.73;16.83;;;8.40;95.30;;;;;;5079266;28;20863;-47
2022/01/15 12:29:40;;;;;;;18.37;16.50;;;8.20;95.10;;;;;;5086617;28;20458;-48
2022/01/15 12:32:07;;;;;;;23.53;17.83;;;8.10;96.40;;;;;;5085600;28;21158;-48
2022/01/15 12:34:35;;;;;;;31.10;17.80;;;8.60;96.30;;;;;;5086487;28;20444;-49
2022/01/15 12:37:04;;;;;;;21.00;18.20;;;8.80;95.90;;;;;;5086706;28;20455;-49
2022/01/15 12:39:35;;;;;;;21.07;16.93;;;8.90;95.90;;;;;;5085743;28;20455;-48
2022/01/15 12:42:04;;;;;;;25.73;19.60;;;8.60;96.50;;;;;;5083807;28;20468;-50
2022/01/15 12:44:31;;;;;;;21.70;19.40;;;8.70;96.60;;;;;;5085907;28;21420;-47
2022/01/15 12:46:59;;;;;;;20.17;18.07;;;8.20;96.80;;;;;;5085421;28;20471;-55
2022/01/15 12:49:40;;;;;;;24.07;18.53;;;7.80;97.40;;;;;;5086633;28;20458;-53
2022/01/15 12:52:18;;;;;;;25.97;21.60;;;7.50;98.10;;;;;;5086603;28;20574;-52
2022/01/15 12:54:49;;;;;;;20.67;17.73;;;7.20;98.60;;;;;;5084710;28;20447;-55
2022/01/15 12:57:47;;;;;;;24.97;19.97;;;7.10;98.90;;;;;;5085043;28;20446;-50
2022/01/15 13:00:19;;;;;;;27.20;19.93;;;6.80;99.60;;;;;;5083120;28;20439;-51
2022/01/15 13:02:49;;;;;;;25.50;20.43;;;6.50;99.90;;;;;;5081000;28;20873;-51